Date,TemperatureHighF,TemperatureAvgF,TemperatureLowF,DewpointHighF,DewpointAvgF,DewpointLowF,HumidityHigh,HumidityAvg,HumidityLow,PressureMaxIn,PressureMinIn,WindSpeedMaxMPH,WindSpeedAvgMPH,GustSpeedMaxMPH,PrecipitationSumIn
2013-1-1,38.2,34.2,23.3,27.7,20.8,7.9,69,58,47,29.89,29.67,27,11,27,0.04
2013-1-2,30.7,25.1,19.2,16.4,11.4,7.2,62,56,47,30.00,29.81,26,9,26,0.00
2013-1-3,31.6,24.9,12.5,17.5,12.2,3.5,67,58,46,30.04,29.87,14,7,14,0.00
2013-1-4,37.7,33.6,30.7,23.6,20.8,17.6,67,59,51,29.90,29.72,25,11,25,0.00
2013-1-5,40.4,35.2,29.5,23.2,21.0,17.2,71,56,48,30.11,29.82,26,10,26,0.00
2013-1-6,45.2,36.8,30.3,31.5,26.0,21.7,88,65,49,30.07,29.80,15,6,15,0.00
2013-1-7,42.6,37.5,28.8,29.7,24.1,18.9,73,59,42,30.22,29.88,20,6,20,0.00
2013-1-8,47.1,36.3,26.6,30.5,25.8,18.9,82,66,51,30.24,30.12,17,5,17,0.00
2013-1-9,46.4,37.7,28.1,37.1,30.3,23.0,87,75,58,30.22,29.93,21,5,21,0.00
2013-1-10,46.7,42.1,37.0,31.7,24.3,21.1,59,49,38,30.36,30.02,29,10,29,0.00
2013-1-11,40.2,36.6,32.7,40.2,29.8,21.8,100,77,56,30.36,29.93,9,2,9,0.43
2013-1-12,45.4,43.0,40.2,45.2,43.0,40.2,100,100,100,30.01,29.90,10,3,10,0.06
2013-1-13,45.9,44.1,42.4,45.9,44.1,42.3,100,100,100,30.00,29.82,8,2,8,0.02
2013-1-14,54.2,47.1,35.7,54.1,42.8,29.9,100,87,52,30.12,29.71,28,6,28,0.10
2013-1-15,36.7,34.9,32.8,33.8,27.3,23.3,100,75,61,30.15,30.04,16,5,16,0.12
2013-1-16,33.4,31.2,29.2,33.3,31.0,23.9,100,99,71,30.06,29.60,12,3,12,0.01
2013-1-17,40.7,36.6,30.0,37.3,28.6,19.4,100,74,56,29.91,29.72,23,7,23,0.55
2013-1-18,30.1,25.0,21.7,19.7,7.8,0.8,65,48,33,30.29,29.85,20,9,20,0.00
2013-1-19,47.5,37.7,25.7,28.4,21.6,8.7,66,52,43,30.22,29.73,31,14,31,0.00
2013-1-20,51.2,40.2,27.8,30.9,22.1,8.6,76,50,26,29.86,29.49,35,16,35,0.00
2013-1-21,28.7,26.3,22.7,16.7,11.4,7.0,69,53,44,29.92,29.63,20,5,20,0.00
2013-1-22,25.4,17.8,11.5,16.6,-1.1,-10.7,69,43,32,30.04,29.63,29,14,29,0.00
2013-1-23,17.4,12.6,8.8,-0.9,-4.3,-9.1,56,46,35,30.09,29.96,24,9,24,0.00
2013-1-24,21.1,14.1,8.5,1.7,-2.2,-5.3,65,49,32,30.24,29.99,36,12,36,0.00
2013-1-25,22.0,16.4,11.8,14.0,3.9,-3.1,86,58,42,30.27,29.91,30,6,30,0.00
2013-1-26,26.5,18.5,12.7,12.4,7.5,4.0,86,64,40,30.22,29.90,25,8,25,0.00
2013-1-27,33.1,24.7,17.4,12.4,9.8,5.8,69,54,40,30.37,30.21,18,8,18,0.00
2013-1-28,32.6,28.5,23.1,32.6,23.5,10.6,100,83,56,30.34,29.83,12,3,12,0.14
2013-1-29,46.7,38.7,32.4,46.7,38.6,32.3,100,100,95,29.96,29.82,9,3,9,0.22
2013-1-30,54.2,45.9,36.6,54.1,43.5,-45.7,100,96,3,29.93,29.17,10,2,10,0.27
2013-1-31,60.0,43.8,28.0,60.0,26.8,-29.0,100,54,8,29.59,28.84,53,23,53,1.03